createdAt,value
2022-09-11T00:02:25.324Z,91.81
2022-09-11T00:04:55.549Z,92.00
2022-09-11T00:07:26.263Z,91.84
2022-09-11T00:09:56.876Z,91.89
2022-09-11T00:12:27.212Z,91.80
2022-09-11T00:14:57.304Z,91.76
2022-09-11T00:17:27.783Z,91.72
2022-09-11T00:19:57.825Z,91.76
2022-09-11T00:22:27.909Z,91.82
2022-09-11T00:24:58.216Z,91.90
2022-09-11T00:27:28.346Z,92.25
2022-09-11T00:29:58.652Z,92.41
2022-09-11T00:32:28.959Z,92.54
2022-09-11T00:34:59.569Z,92.59
2022-09-11T00:37:30.291Z,92.72
2022-09-11T00:40:00.502Z,92.69
2022-09-11T00:42:30.582Z,92.62
2022-09-11T00:45:01.149Z,92.73
2022-09-11T00:47:31.591Z,92.78
2022-09-11T00:50:02.186Z,92.70
2022-09-11T00:52:32.794Z,92.65
2022-09-11T00:55:03.470Z,92.50
2022-09-11T00:57:33.603Z,92.78
2022-09-11T01:00:04.034Z,92.71
2022-09-11T01:02:34.349Z,92.99
2022-09-11T01:05:04.902Z,92.86
2022-09-11T01:07:34.786Z,92.77
2022-09-11T01:10:05.228Z,92.87
2022-09-11T01:12:35.752Z,92.81
2022-09-11T01:15:06.398Z,92.66
2022-09-11T01:17:36.816Z,92.78
2022-09-11T01:20:07.731Z,92.78
2022-09-11T01:22:37.866Z,92.81
2022-09-11T01:25:08.767Z,93.12
2022-09-11T01:27:39.359Z,93.43
2022-09-11T01:30:11.787Z,93.68
2022-09-11T01:32:40.640Z,93.82
2022-09-11T01:35:11.162Z,94.70
2022-09-11T01:37:41.569Z,94.93
2022-09-11T01:40:11.684Z,94.99
2022-09-11T01:42:42.146Z,95.18
2022-09-11T01:45:12.373Z,95.05
2022-09-11T01:47:42.383Z,95.01
2022-09-11T01:50:12.766Z,95.34
2022-09-11T01:52:43.377Z,95.88
2022-09-11T01:55:13.504Z,96.77
2022-09-11T01:57:43.673Z,96.48
2022-09-11T02:00:13.835Z,96.47
2022-09-11T02:02:44.015Z,96.37
2022-09-11T02:05:14.645Z,96.29
2022-09-11T02:07:44.716Z,96.24
2022-09-11T02:10:15.786Z,96.31
2022-09-11T02:12:45.603Z,96.33
2022-09-11T02:15:16.021Z,96.34
2022-09-11T02:17:46.492Z,96.47
2022-09-11T02:20:16.562Z,96.50
2022-09-11T02:22:46.767Z,97.09
2022-09-11T02:25:17.221Z,97.11
2022-09-11T02:27:47.899Z,97.11
2022-09-11T02:30:18.273Z,97.66
2022-09-11T02:32:48.359Z,97.59
2022-09-11T02:35:19.068Z,97.64
2022-09-11T02:37:49.282Z,97.62
2022-09-11T02:40:19.988Z,97.59
2022-09-11T02:42:50.713Z,97.50
2022-09-11T02:45:20.936Z,97.28
2022-09-11T02:47:50.965Z,96.95
2022-09-11T02:50:21.714Z,96.81
2022-09-11T02:52:52.489Z,97.11
2022-09-11T02:55:23.157Z,97.28
2022-09-11T02:57:53.917Z,97.24
2022-09-11T03:00:24.002Z,97.18
2022-09-11T03:02:54.696Z,96.88
2022-09-11T03:05:25.384Z,96.84
2022-09-11T03:07:56.080Z,97.03
2022-09-11T03:10:26.384Z,97.37
2022-09-11T03:12:56.669Z,97.48
2022-09-11T03:15:27.273Z,97.45
2022-09-11T03:17:57.311Z,97.27
2022-09-11T03:20:27.456Z,97.31
2022-09-11T03:22:57.535Z,97.57
2022-09-11T03:25:28.008Z,97.37
2022-09-11T03:27:58.631Z,97.33
2022-09-11T03:30:28.804Z,97.38
2022-09-11T03:32:59.090Z,97.38
2022-09-11T03:35:29.224Z,98.05
2022-09-11T03:37:59.445Z,98.14
2022-09-11T03:40:30.343Z,98.04
2022-09-11T03:43:00.633Z,98.14
2022-09-11T03:45:31.408Z,98.90
2022-09-11T03:48:01.807Z,98.50
2022-09-11T03:50:32.562Z,98.82
2022-09-11T03:53:03.253Z,98.32
2022-09-11T03:55:33.479Z,98.27
2022-09-11T03:58:03.920Z,98.19
2022-09-11T04:00:34.039Z,97.99
2022-09-11T04:03:04.675Z,97.80
2022-09-11T04:05:35.498Z,97.54
2022-09-11T04:08:05.798Z,97.28
2022-09-11T04:10:36.594Z,97.13
2022-09-11T04:13:06.531Z,96.80
2022-09-11T04:15:36.613Z,96.77
2022-09-11T04:18:06.726Z,96.84
2022-09-11T04:20:37.379Z,96.79
2022-09-11T04:23:07.942Z,96.86
2022-09-11T04:25:38.120Z,96.87
2022-09-11T04:28:08.612Z,96.68
2022-09-11T04:30:38.755Z,96.66
2022-09-11T04:33:09.204Z,96.61
2022-09-11T04:35:39.901Z,96.59
2022-09-11T04:38:10.464Z,96.52
2022-09-11T04:40:41.048Z,96.54
2022-09-11T04:43:11.670Z,96.53
2022-09-11T04:45:41.881Z,96.53
2022-09-11T04:48:12.472Z,96.52
2022-09-11T04:50:43.163Z,96.40
2022-09-11T04:53:13.960Z,96.34
2022-09-11T04:55:44.750Z,96.36
2022-09-11T04:58:15.085Z,96.55
2022-09-11T05:00:45.688Z,96.66
2022-09-11T05:03:15.839Z,96.82
2022-09-11T05:05:46.614Z,96.84
2022-09-11T05:08:16.671Z,96.81
2022-09-11T05:10:47.411Z,96.74
2022-09-11T05:13:17.880Z,96.82
2022-09-11T05:15:48.418Z,96.66
2022-09-11T05:18:18.415Z,96.71
2022-09-11T05:20:49.244Z,96.63
2022-09-11T05:23:20.004Z,96.99
2022-09-11T05:25:50.255Z,97.45
2022-09-11T05:28:20.784Z,97.68
2022-09-11T05:30:50.958Z,97.70
2022-09-11T05:33:21.491Z,97.72
2022-09-11T05:35:52.160Z,97.54
2022-09-11T05:38:22.637Z,97.44
2022-09-11T05:40:53.008Z,97.63
2022-09-11T05:43:23.210Z,97.71
2022-09-11T05:45:53.295Z,97.81
2022-09-11T05:48:24.048Z,97.69
2022-09-11T05:50:54.632Z,97.87
2022-09-11T05:53:24.775Z,97.86
2022-09-11T05:55:55.527Z,97.66
2022-09-11T05:58:26.267Z,97.51
2022-09-11T06:00:56.769Z,97.21
2022-09-11T06:03:26.782Z,96.95
2022-09-11T06:05:57.645Z,97.14
2022-09-11T06:08:28.041Z,97.30
2022-09-11T06:10:58.453Z,97.61
2022-09-11T06:13:28.627Z,97.48
2022-09-11T06:15:58.800Z,97.71
2022-09-11T06:18:28.919Z,98.41
2022-09-11T06:20:59.443Z,97.98
2022-09-11T06:23:29.501Z,97.90
2022-09-11T06:26:00.246Z,97.79
2022-09-11T06:28:30.591Z,97.80
2022-09-11T06:31:01.064Z,97.82
2022-09-11T06:33:31.541Z,98.13
2022-09-11T06:36:02.069Z,98.33
2022-09-11T06:38:32.607Z,98.49
2022-09-11T06:41:02.678Z,98.70
2022-09-11T06:43:32.744Z,98.64
2022-09-11T06:46:03.441Z,98.23
2022-09-11T06:48:33.623Z,98.25
2022-09-11T06:51:03.766Z,98.47
2022-09-11T06:53:34.535Z,98.43
2022-09-11T06:56:05.420Z,99.09
2022-09-11T06:58:35.881Z,98.97
2022-09-11T07:01:06.715Z,98.92
2022-09-11T07:03:36.968Z,98.97
2022-09-11T07:06:07.560Z,98.72
2022-09-11T07:08:38.263Z,98.65
2022-09-11T07:11:08.693Z,98.37
2022-09-11T07:13:39.661Z,98.56
2022-09-11T07:16:09.650Z,98.42
2022-09-11T07:18:40.211Z,98.40
2022-09-11T07:21:10.372Z,98.27
2022-09-11T07:23:40.511Z,98.33
2022-09-11T07:26:11.189Z,98.18
2022-09-11T07:28:41.368Z,98.30
2022-09-11T07:31:11.661Z,98.15
2022-09-11T07:33:41.931Z,98.52
2022-09-11T07:36:12.407Z,98.22
2022-09-11T07:38:42.805Z,98.47
2022-09-11T07:41:13.313Z,98.68
2022-09-11T07:43:43.659Z,98.51
2022-09-11T07:46:13.715Z,98.33
2022-09-11T07:48:43.749Z,98.33
2022-09-11T07:51:14.280Z,98.03
2022-09-11T07:53:44.472Z,97.82
2022-09-11T07:56:14.759Z,97.75
2022-09-11T07:58:45.364Z,97.64
2022-09-11T08:01:16.072Z,97.58
2022-09-11T08:03:46.413Z,97.50
2022-09-11T08:06:21.374Z,97.47
2022-09-11T08:08:47.158Z,97.48
2022-09-11T08:11:17.176Z,97.31
2022-09-11T08:13:47.897Z,96.97
2022-09-11T08:16:18.712Z,97.19
2022-09-11T08:18:49.538Z,97.47
2022-09-11T08:21:19.723Z,97.58
2022-09-11T08:23:50.080Z,97.83
2022-09-11T08:26:20.232Z,98.52
2022-09-11T08:28:50.923Z,98.20
2022-09-11T08:31:21.076Z,98.64
2022-09-11T08:33:51.337Z,98.37
2022-09-11T08:36:21.677Z,98.12
2022-09-11T08:38:52.463Z,97.85
2022-09-11T08:41:23.046Z,97.65
2022-09-11T08:43:53.483Z,97.42
2022-09-11T08:46:24.120Z,97.53
2022-09-11T08:48:54.808Z,97.42
2022-09-11T08:51:24.951Z,97.56
2022-09-11T08:53:55.771Z,97.42
2022-09-11T08:56:25.830Z,97.60
2022-09-11T08:58:55.929Z,97.45
2022-09-11T09:01:26.647Z,97.39
2022-09-11T09:03:56.619Z,97.02
2022-09-11T09:06:27.478Z,96.87
2022-09-11T09:08:57.827Z,96.77
2022-09-11T09:11:28.784Z,96.62
2022-09-11T09:13:58.757Z,96.42
2022-09-11T09:16:29.489Z,96.14
2022-09-11T09:18:59.559Z,95.96
2022-09-11T09:21:30.202Z,94.93
2022-09-11T09:24:00.464Z,95.69
2022-09-11T09:26:31.731Z,96.12
2022-09-11T09:29:01.323Z,95.51
2022-09-11T09:31:31.702Z,95.37
2022-09-11T09:34:01.676Z,95.70
2022-09-11T09:36:32.113Z,94.80
2022-09-11T09:39:02.355Z,95.06
2022-09-11T09:41:33.170Z,95.10
2022-09-11T09:44:03.251Z,94.47
2022-09-11T09:46:33.897Z,94.27
2022-09-11T09:49:04.440Z,94.50
2022-09-11T09:51:35.139Z,94.41
2022-09-11T09:54:05.189Z,93.58
2022-09-11T09:56:36.092Z,91.79
2022-09-11T09:59:06.320Z,92.35
2022-09-11T10:01:36.725Z,93.81
2022-09-11T10:04:06.907Z,94.21
2022-09-11T10:06:36.964Z,92.92
2022-09-11T10:09:07.248Z,93.54
2022-09-11T10:11:37.314Z,91.25
2022-09-11T10:14:11.797Z,91.63
2022-09-11T10:16:37.707Z,91.48
2022-09-11T10:19:08.044Z,91.07
2022-09-11T10:21:38.448Z,91.23
2022-09-11T10:24:08.741Z,91.31
2022-09-11T10:26:38.794Z,89.84
2022-09-11T10:29:09.044Z,89.94
2022-09-11T10:31:39.461Z,88.98
2022-09-11T10:34:09.569Z,89.68
2022-09-11T10:36:39.860Z,88.76
2022-09-11T10:39:09.849Z,87.67
2022-09-11T10:41:40.657Z,88.49
2022-09-11T10:44:10.960Z,87.57
2022-09-11T10:46:41.419Z,88.78
2022-09-11T10:49:11.824Z,87.57
2022-09-11T10:51:44.333Z,87.68
2022-09-11T10:54:12.431Z,88.35
2022-09-11T10:56:43.326Z,87.84
2022-09-11T10:59:14.139Z,87.50
2022-09-11T11:01:44.515Z,87.55
2022-09-11T11:04:14.809Z,86.73
2022-09-11T11:06:45.614Z,87.84
2022-09-11T11:09:16.101Z,86.42
2022-09-11T11:11:46.427Z,85.39
2022-09-11T11:14:16.384Z,87.31
2022-09-11T11:16:46.704Z,86.60
2022-09-11T11:19:17.050Z,84.64
2022-09-11T11:21:47.270Z,85.23
2022-09-11T11:24:17.531Z,84.52
2022-09-11T11:26:48.403Z,84.40
2022-09-11T11:29:19.202Z,84.84
2022-09-11T11:31:49.447Z,82.03
2022-09-11T11:34:19.683Z,83.28
2022-09-11T11:36:49.945Z,83.74
2022-09-11T11:39:20.167Z,83.80
2022-09-11T11:41:50.232Z,83.84
2022-09-11T11:44:20.516Z,84.38
2022-09-11T11:46:50.733Z,80.96
2022-09-11T11:49:20.959Z,80.98
2022-09-11T11:51:51.235Z,81.76
2022-09-11T11:54:21.465Z,82.57
2022-09-11T11:56:51.765Z,83.00
2022-09-11T11:59:21.970Z,82.06
2022-09-11T12:01:52.245Z,82.49
2022-09-11T12:04:22.421Z,81.85
2022-09-11T12:06:52.678Z,82.04
2022-09-11T12:09:22.945Z,80.47
2022-09-11T12:11:53.181Z,79.39
2022-09-11T12:14:23.394Z,79.87
2022-09-11T12:16:53.582Z,80.29
2022-09-11T12:19:23.782Z,77.56
2022-09-11T12:21:54.042Z,80.55
2022-09-11T12:24:24.225Z,79.90
2022-09-11T12:26:54.565Z,79.05
2022-09-11T12:29:24.655Z,76.63
2022-09-11T12:31:54.903Z,73.65
2022-09-11T12:34:25.155Z,78.27
2022-09-11T12:36:55.309Z,76.53
2022-09-11T12:39:25.489Z,74.69
2022-09-11T12:41:55.723Z,73.66
2022-09-11T12:44:25.888Z,74.47
2022-09-11T12:46:56.128Z,75.25
2022-09-11T12:49:26.439Z,75.93
2022-09-11T12:51:56.628Z,72.60
2022-09-11T12:54:26.776Z,70.76
2022-09-11T12:56:57.045Z,74.54
2022-09-11T12:59:27.234Z,73.43
2022-09-11T13:01:57.637Z,73.11
2022-09-11T13:04:27.667Z,74.11
2022-09-11T13:06:57.910Z,74.19
2022-09-11T13:09:28.111Z,72.49
2022-09-11T13:11:58.343Z,73.21
2022-09-11T13:14:28.499Z,74.05
2022-09-11T13:16:58.831Z,72.43
2022-09-11T13:19:28.920Z,71.58
2022-09-11T13:21:59.130Z,73.30
2022-09-11T13:24:29.405Z,68.48
2022-09-11T13:26:59.589Z,68.21
2022-09-11T13:29:29.694Z,70.61
2022-09-11T13:31:59.916Z,71.11
2022-09-11T13:34:30.179Z,72.68
2022-09-11T13:37:00.320Z,71.80
2022-09-11T13:39:30.478Z,70.99
2022-09-11T13:42:00.715Z,69.10
2022-09-11T13:44:30.886Z,71.85
2022-09-11T13:47:01.110Z,67.19
2022-09-11T13:49:31.265Z,67.69
2022-09-11T13:52:01.465Z,68.29
2022-09-11T13:54:31.671Z,66.72
2022-09-11T13:57:01.873Z,65.92
2022-09-11T13:59:32.031Z,67.99
2022-09-11T14:02:02.258Z,67.55
2022-09-11T14:04:32.392Z,68.00
2022-09-11T14:07:02.609Z,68.24
2022-09-11T14:09:32.769Z,68.96
2022-09-11T14:12:03.003Z,69.07
2022-09-11T14:14:33.175Z,66.78
2022-09-11T14:17:03.366Z,67.56
2022-09-11T14:19:33.538Z,66.43
2022-09-11T14:22:03.754Z,68.64
2022-09-11T14:24:33.930Z,66.89
2022-09-11T14:27:04.169Z,66.41
2022-09-11T14:29:34.335Z,66.91
2022-09-11T14:32:04.564Z,66.52
2022-09-11T14:34:34.836Z,67.20
2022-09-11T14:37:05.042Z,67.82
2022-09-11T14:39:35.133Z,68.75
2022-09-11T14:42:05.400Z,69.36
2022-09-11T14:44:35.600Z,67.89
2022-09-11T14:47:05.739Z,67.75
2022-09-11T14:49:35.912Z,68.32
2022-09-11T14:52:06.124Z,67.94
2022-09-11T14:54:36.311Z,68.62
2022-09-11T14:57:06.526Z,68.40
2022-09-11T14:59:36.693Z,66.05
2022-09-11T15:02:06.890Z,66.16
2022-09-11T15:04:37.050Z,66.38
2022-09-11T15:07:07.266Z,66.23
2022-09-11T15:09:37.430Z,67.89
2022-09-11T15:12:07.655Z,67.36
2022-09-11T15:14:55.884Z,67.07
2022-09-11T15:17:08.005Z,66.37
2022-09-11T15:19:38.189Z,68.00
2022-09-11T15:22:08.395Z,67.84
2022-09-11T15:24:38.571Z,68.36
2022-09-11T15:27:08.798Z,69.34
2022-09-11T15:29:38.938Z,68.68
2022-09-11T15:32:09.158Z,69.31
2022-09-11T15:34:39.349Z,69.01
2022-09-11T15:37:09.638Z,69.27
2022-09-11T15:39:39.790Z,69.10
2022-09-11T15:42:10.139Z,69.37
2022-09-11T15:44:40.149Z,68.75
2022-09-11T15:47:10.443Z,68.82
2022-09-11T15:49:40.567Z,69.29
2022-09-11T15:52:10.795Z,69.50
2022-09-11T15:54:40.984Z,69.95
2022-09-11T15:57:11.205Z,69.41
2022-09-11T15:59:41.365Z,68.72
2022-09-11T16:02:11.655Z,70.01
2022-09-11T16:04:41.785Z,69.85
2022-09-11T16:07:11.973Z,70.58
2022-09-11T16:09:42.144Z,70.74
2022-09-11T16:12:12.475Z,71.30
2022-09-11T16:14:42.523Z,71.72
2022-09-11T16:17:12.723Z,70.30
2022-09-11T16:19:42.910Z,70.26
2022-09-11T16:22:13.111Z,71.02
2022-09-11T16:24:43.266Z,71.02
2022-09-11T16:27:13.598Z,71.61
2022-09-11T16:30:15.954Z,71.87
2022-09-11T16:32:13.848Z,71.89
2022-09-11T16:34:44.007Z,72.21
2022-09-11T16:37:14.230Z,72.35
2022-09-11T16:39:44.408Z,72.32
2022-09-11T16:42:14.610Z,73.02
2022-09-11T16:44:44.830Z,72.92
2022-09-11T16:47:14.971Z,73.06
2022-09-11T16:50:05.839Z,73.34
2022-09-11T16:52:15.350Z,72.85
2022-09-11T16:54:48.767Z,72.62
2022-09-11T16:57:15.920Z,72.81
2022-09-11T16:59:45.935Z,73.51
2022-09-11T17:02:16.202Z,73.74
2022-09-11T17:04:46.336Z,73.94
2022-09-11T17:07:16.557Z,73.92
2022-09-11T17:09:46.711Z,74.71
2022-09-11T17:12:16.932Z,75.03
2022-09-11T17:14:47.065Z,75.00
2022-09-11T17:17:17.289Z,74.98
2022-09-11T17:19:47.531Z,75.00
2022-09-11T17:22:17.674Z,75.06
2022-09-11T17:24:47.871Z,75.18
2022-09-11T17:27:18.135Z,75.74
2022-09-11T17:29:48.308Z,76.40
2022-09-11T17:32:27.771Z,77.02
2022-09-11T17:34:48.653Z,77.61
2022-09-11T17:37:18.860Z,77.82
2022-09-11T17:39:49.103Z,78.18
2022-09-11T17:42:19.292Z,78.17
2022-09-11T17:44:49.546Z,78.30
2022-09-11T17:47:19.685Z,78.63
2022-09-11T17:49:49.831Z,78.67
2022-09-11T17:52:20.050Z,78.56
2022-09-11T17:54:50.235Z,78.29
2022-09-11T17:57:20.482Z,78.19
2022-09-11T17:59:50.629Z,78.18
2022-09-11T18:02:20.883Z,78.31
2022-09-11T18:04:51.144Z,78.72
2022-09-11T18:07:21.300Z,78.88
2022-09-11T18:09:56.061Z,79.20
2022-09-11T18:12:21.728Z,79.49
2022-09-11T18:14:52.015Z,79.95
2022-09-11T18:17:22.161Z,80.42
2022-09-11T18:19:52.359Z,80.62
2022-09-11T18:22:22.594Z,80.54
2022-09-11T18:24:52.801Z,80.88
2022-09-11T18:27:23.060Z,80.91
2022-09-11T18:29:53.478Z,80.66
2022-09-11T18:32:24.245Z,80.49
2022-09-11T18:34:54.525Z,80.50
2022-09-11T18:37:24.782Z,80.46
2022-09-11T18:39:55.001Z,80.60
2022-09-11T18:42:25.293Z,80.63
2022-09-11T18:44:55.568Z,80.70
2022-09-11T18:47:25.726Z,80.72
2022-09-11T18:49:55.931Z,80.61
2022-09-11T18:52:26.429Z,80.80
2022-09-11T18:54:56.424Z,80.73
2022-09-11T18:57:26.740Z,80.62
2022-09-11T18:59:57.558Z,80.64
2022-09-11T19:02:27.775Z,80.85
2022-09-11T19:04:58.036Z,80.89
2022-09-11T19:07:28.296Z,81.07
2022-09-11T19:10:00.275Z,81.15
2022-09-11T19:12:28.853Z,81.30
2022-09-11T19:15:00.146Z,81.91
2022-09-11T19:17:29.378Z,82.26
2022-09-11T19:20:00.358Z,82.34
2022-09-11T19:22:29.908Z,82.57
2022-09-11T19:25:00.181Z,82.81
2022-09-11T19:27:30.428Z,83.00
2022-09-11T19:30:00.786Z,83.12
2022-09-11T19:32:30.940Z,83.56
2022-09-11T19:35:01.162Z,83.53
2022-09-11T19:37:31.445Z,83.55
2022-09-11T19:40:01.726Z,83.49
2022-09-11T19:42:31.982Z,83.42
2022-09-11T19:45:02.200Z,83.31
2022-09-11T19:47:32.476Z,83.39
2022-09-11T19:50:02.711Z,83.45
2022-09-11T19:52:33.325Z,84.06
2022-09-11T19:55:03.355Z,84.06
2022-09-11T19:57:33.573Z,84.03
2022-09-11T20:00:03.781Z,84.33
2022-09-11T20:02:34.088Z,84.54
2022-09-11T20:05:04.331Z,84.55
2022-09-11T20:07:34.611Z,84.35
2022-09-11T20:10:04.863Z,84.24
2022-09-11T20:12:35.171Z,84.48
2022-09-11T20:15:05.401Z,84.93
2022-09-11T20:17:35.727Z,84.94
2022-09-11T20:20:05.971Z,84.74
2022-09-11T20:22:36.277Z,85.04
2022-09-11T20:25:06.550Z,85.25
2022-09-11T20:27:36.872Z,84.88
2022-09-11T20:30:07.182Z,85.28
2022-09-11T20:32:37.399Z,85.43
2022-09-11T20:35:07.655Z,85.26
2022-09-11T20:37:38.062Z,85.32
2022-09-11T20:40:08.312Z,85.52
2022-09-11T20:42:38.561Z,85.55
2022-09-11T20:45:08.799Z,85.44
2022-09-11T20:47:39.125Z,85.41
2022-09-11T20:50:09.379Z,85.46
2022-09-11T20:52:39.836Z,85.55
2022-09-11T20:55:10.031Z,85.71
2022-09-11T20:57:40.309Z,85.99
2022-09-11T21:00:10.556Z,85.81
2022-09-11T21:02:40.875Z,85.79
2022-09-11T21:05:11.161Z,85.71
2022-09-11T21:07:41.482Z,86.13
2022-09-11T21:10:11.763Z,85.93
2022-09-11T21:12:42.230Z,85.68
2022-09-11T21:15:12.370Z,85.91
2022-09-11T21:17:42.698Z,85.77
2022-09-11T21:20:12.991Z,86.06
2022-09-11T21:22:43.325Z,86.19
2022-09-11T21:25:13.609Z,86.29
2022-09-11T21:27:43.965Z,86.57
2022-09-11T21:30:14.259Z,86.46
2022-09-11T21:32:44.587Z,86.57
2022-09-11T21:35:15.441Z,86.64
2022-09-11T21:37:45.850Z,86.71
2022-09-11T21:40:16.137Z,86.91
2022-09-11T21:42:46.451Z,86.86
2022-09-11T21:45:16.735Z,86.78
2022-09-11T21:47:47.088Z,87.14
2022-09-11T21:50:17.397Z,87.26
2022-09-11T21:52:47.815Z,86.94
2022-09-11T21:55:18.049Z,86.95
2022-09-11T21:57:48.970Z,87.00
2022-09-11T22:00:19.516Z,87.08
2022-09-11T22:02:49.648Z,86.90
2022-09-11T22:05:20.180Z,86.92
2022-09-11T22:07:50.535Z,87.10
2022-09-11T22:10:20.906Z,87.13
2022-09-11T22:12:51.241Z,87.29
2022-09-11T22:15:21.537Z,87.05
2022-09-11T22:17:51.904Z,86.96
2022-09-11T22:20:22.253Z,87.18
2022-09-11T22:22:52.598Z,87.10
2022-09-11T22:25:22.892Z,87.25
2022-09-11T22:27:53.283Z,87.24
2022-09-11T22:30:23.594Z,87.41
2022-09-11T22:32:53.962Z,87.16
2022-09-11T22:35:24.296Z,87.19
2022-09-11T22:37:54.778Z,87.20
2022-09-11T22:40:24.710Z,87.24
2022-09-11T22:42:55.114Z,87.16
2022-09-11T22:45:25.691Z,87.26
2022-09-11T22:47:56.359Z,87.33
2022-09-11T22:50:26.684Z,87.35
2022-09-11T22:52:57.057Z,87.25
2022-09-11T22:55:27.388Z,87.23
2022-09-11T22:57:57.768Z,87.24
2022-09-11T23:00:28.080Z,87.16
2022-09-11T23:02:58.532Z,87.09
2022-09-11T23:05:28.767Z,87.14
2022-09-11T23:07:59.130Z,87.06
2022-09-11T23:10:29.814Z,87.03
2022-09-11T23:13:00.440Z,87.13
2022-09-11T23:15:30.732Z,87.36
2022-09-11T23:18:01.108Z,87.68
2022-09-11T23:20:31.437Z,87.43
2022-09-11T23:23:01.841Z,87.44
2022-09-11T23:25:32.188Z,87.39
2022-09-11T23:28:02.301Z,87.36
2022-09-11T23:30:32.616Z,87.47
2022-09-11T23:33:03.016Z,87.60
2022-09-11T23:35:33.356Z,87.71
2022-09-11T23:38:03.494Z,87.67
2022-09-11T23:40:33.770Z,87.80
2022-09-11T23:43:04.185Z,87.77
2022-09-11T23:45:34.578Z,87.76
2022-09-11T23:48:04.639Z,87.69
2022-09-11T23:50:34.982Z,87.55
2022-09-11T23:53:05.359Z,87.58
2022-09-11T23:55:37.716Z,87.69
2022-09-11T23:58:05.839Z,87.71
